Time;durP1;ratioP1;P1;durP2;ratioP2;P2;SDS_P1;SDS_P2;PMS_P1;PMS_P2;Temp;Humidity;BMP_temperature;BMP_pressure;BME280_temperature;BME280_humidity;BME280_pressure;Samples;Min_cycle;Max_cycle;Signal;HPM_P1;HPM_P2
2022/03/19 00:00:22;;;;;;;12.67;7.20;;;;;;;8.08;65.48;104256.03;5229094;28;20036;-68
2022/03/19 00:02:54;;;;;;;16.63;7.57;;;;;;;8.16;65.15;104260.44;5228526;28;20025;-67
2022/03/19 00:05:25;;;;;;;12.93;6.80;;;;;;;7.98;65.85;104252.50;5229284;28;20026;-68
2022/03/19 00:07:57;;;;;;;13.63;7.73;;;;;;;7.88;66.45;104261.16;5237816;28;20066;-69
2022/03/19 00:10:28;;;;;;;13.03;7.17;;;;;;;7.84;67.08;104257.63;5228780;28;20033;-71
2022/03/19 00:12:59;;;;;;;10.97;7.03;;;;;;;7.75;67.52;104252.34;5229684;28;20064;-71
2022/03/19 00:15:31;;;;;;;15.50;6.40;;;;;;;7.74;66.92;104243.66;5227707;28;20423;-70
2022/03/19 00:18:06;;;;;;;14.03;7.27;;;;;;;7.80;67.01;104257.63;5228177;28;20029;-70
2022/03/19 00:20:38;;;;;;;11.30;6.67;;;;;;;7.82;66.71;104261.97;5228138;28;20030;-70
2022/03/19 00:23:09;;;;;;;11.77;6.20;;;;;;;7.84;67.08;104254.16;5228838;28;20032;-70
2022/03/19 00:25:41;;;;;;;13.70;6.40;;;;;;;7.77;67.17;104257.59;5230090;28;20033;-72
2022/03/19 00:28:12;;;;;;;15.83;6.97;;;;;;;7.77;67.02;104252.38;5228699;28;20040;-70
2022/03/19 00:30:44;;;;;;;17.97;8.03;;;;;;;7.77;67.30;104255.84;5229417;28;20472;-69
2022/03/19 00:33:15;;;;;;;13.50;7.50;;;;;;;7.71;67.40;104248.88;5227778;28;20024;-70
2022/03/19 00:35:47;;;;;;;11.90;7.20;;;;;;;7.67;67.96;104247.09;5230023;28;20431;-70
2022/03/19 00:38:18;;;;;;;14.27;6.27;;;;;;;7.37;68.81;104226.00;5229292;28;20029;-70
2022/03/19 00:40:51;;;;;;;12.40;7.53;;;;;;;7.50;69.06;104239.97;5228616;28;20037;-70
2022/03/19 00:43:22;;;;;;;12.27;6.77;;;;;;;7.46;68.93;104240.84;5229189;28;20045;-70
2022/03/19 00:45:54;;;;;;;13.33;8.00;;;;;;;7.38;69.59;104242.50;5229081;28;20030;-69
2022/03/19 00:48:25;;;;;;;12.30;6.83;;;;;;;7.38;69.16;104237.31;5228360;28;20167;-70
2022/03/19 00:50:56;;;;;;;15.60;8.07;;;;;;;7.42;69.42;104239.06;5229679;28;20025;-69
2022/03/19 00:53:27;;;;;;;11.33;7.30;;;;;;;7.47;68.97;104237.34;5228254;28;20095;-69
2022/03/19 00:55:59;;;;;;;15.20;7.63;;;;;;;7.33;69.77;104239.00;5228901;28;20038;-69
2022/03/19 00:58:30;;;;;;;12.47;7.50;;;;;;;7.33;69.50;104234.63;5232413;28;20474;-69
2022/03/19 01:01:02;;;;;;;15.50;7.70;;;;;;;7.33;69.60;104232.03;5233458;28;20025;-69
2022/03/19 01:03:33;;;;;;;17.23;7.93;;;;;;;7.34;69.66;104227.69;5231999;28;20096;-69
2022/03/19 01:06:04;;;;;;;14.13;7.70;;;;;;;7.32;70.08;104226.78;5233490;28;20033;-69
2022/03/19 01:08:36;;;;;;;14.23;7.70;;;;;;;7.17;70.57;104223.22;5233409;28;20041;-69
2022/03/19 01:11:07;;;;;;;15.20;8.33;;;;;;;7.31;70.01;104232.88;5232220;28;20107;-71
2022/03/19 01:13:38;;;;;;;11.17;7.53;;;;;;;7.20;70.79;104231.06;5233504;28;20014;-70
2022/03/19 01:16:09;;;;;;;14.73;8.17;;;;;;;7.23;70.61;104236.28;5231412;28;20029;-70
2022/03/19 01:18:41;;;;;;;16.30;7.93;;;;;;;7.20;70.54;104236.28;5235801;28;20025;-70
2022/03/19 01:21:12;;;;;;;18.03;8.73;;;;;;;7.28;70.38;104228.50;5231859;28;20033;-70
2022/03/19 01:23:44;;;;;;;16.20;9.63;;;;;;;7.18;71.04;104217.13;5233008;28;20026;-70
2022/03/19 01:26:16;;;;;;;14.17;8.80;;;;;;;7.16;71.12;104229.28;5232656;28;20120;-70
2022/03/19 01:28:47;;;;;;;16.17;8.63;;;;;;;7.20;70.96;104214.53;5232887;28;20164;-70
2022/03/19 01:31:21;;;;;;;12.83;8.50;;;;;;;7.13;71.25;104218.81;5232950;28;20033;-70
2022/03/19 01:33:53;;;;;;;16.23;8.85;;;;;;;7.17;70.94;104225.81;5232210;28;20590;-70
2022/03/19 01:36:24;;;;;;;16.17;8.87;;;;;;;7.06;71.04;104201.38;5232621;28;20079;-70
2022/03/19 01:38:55;;;;;;;13.00;8.50;;;;;;;7.13;70.98;104216.22;5232950;28;20026;-69
2022/03/19 01:41:27;;;;;;;13.77;8.67;;;;;;;7.07;71.39;104218.78;5231737;28;20030;-70
2022/03/19 01:43:58;;;;;;;13.60;9.37;;;;;;;7.09;71.34;104219.63;5232451;28;20072;-71
2022/03/19 01:46:29;;;;;;;19.90;9.70;;;;;;;7.12;71.09;104211.88;5232970;28;20029;-70
2022/03/19 01:49:01;;;;;;;15.13;9.60;;;;;;;7.15;70.70;104219.72;5230094;28;20046;-70
2022/03/19 01:51:35;;;;;;;14.53;9.37;;;;;;;7.07;71.56;104218.78;5232789;28;20483;-70
2022/03/19 01:54:07;;;;;;;16.75;8.88;;;;;;;7.00;71.59;104208.28;5231609;28;20458;-69
2022/03/19 01:56:39;;;;;;;16.93;9.07;;;;;;;6.93;71.84;104209.06;5232699;28;20105;-70
2022/03/19 01:59:12;;;;;;;14.60;9.50;;;;;;;6.95;71.85;104207.34;5230910;28;20029;-70
2022/03/19 02:01:45;;;;;;;13.93;9.35;;;;;;;6.77;72.96;104206.28;5232646;28;20034;-70
2022/03/19 02:04:18;;;;;;;17.00;10.77;;;;;;;6.75;72.99;104201.94;5231660;28;20124;-70
2022/03/19 02:06:50;;;;;;;14.50;9.77;;;;;;;6.84;72.71;104201.16;5231982;28;20029;-70
2022/03/19 02:09:22;;;;;;;18.97;10.73;;;;;;;6.86;72.80;104204.69;5231620;28;20140;-70
2022/03/19 02:14:28;;;;;;;16.30;10.32;;;;;;;6.74;73.33;104195.84;5245668;28;20060;-71
2022/03/19 02:17:01;;;;;;;15.97;12.03;;;;;;;6.68;73.91;104190.59;5251293;28;20518;-71
2022/03/19 02:19:33;;;;;;;19.03;11.30;;;;;;;6.44;74.94;104167.75;5224423;28;20038;-70
2022/03/19 02:22:04;;;;;;;17.17;12.07;;;;;;;6.67;74.11;104188.81;5231600;28;20021;-70
2022/03/19 02:27:25;;;;;;;18.97;11.10;;;;;;;6.46;75.33;104177.31;5216566;28;20029;-70
2022/03/19 02:29:57;;;;;;;17.37;12.33;;;;;;;6.53;74.93;104176.53;5252462;28;20024;-70
2022/03/19 02:32:28;;;;;;;18.20;12.97;;;;;;;6.43;75.26;104169.47;5251558;28;20025;-71
2022/03/19 02:35:00;;;;;;;15.03;11.40;;;;;;;6.50;74.98;104166.09;5251644;28;20369;-71
2022/03/19 02:38:01;;;;;;;20.37;12.57;;;;;;;6.69;74.05;104160.19;5252426;28;20052;-70
2022/03/19 02:40:32;;;;;;;19.00;12.67;;;;;;;6.51;75.37;104160.00;5235038;28;20124;-70
2022/03/19 02:43:03;;;;;;;16.07;11.57;;;;;;;6.49;75.82;104158.25;5251828;28;20107;-70
2022/03/19 02:45:35;;;;;;;20.50;13.90;;;;;;;6.43;76.16;104163.38;5251826;28;20162;-70
2022/03/19 02:48:06;;;;;;;20.47;12.30;;;;;;;6.37;76.34;104159.00;5251006;28;20107;-70
2022/03/19 02:50:37;;;;;;;19.27;13.40;;;;;;;6.41;76.26;104156.44;5233842;28;20063;-70
2022/03/19 02:53:11;;;;;;;20.53;13.93;;;;;;;6.34;76.66;104151.13;5251644;28;20024;-69
2022/03/19 02:55:42;;;;;;;21.60;13.93;;;;;;;6.33;76.52;104147.66;5234162;28;20103;-70
2022/03/19 02:58:13;;;;;;;20.57;12.77;;;;;;;6.24;77.63;104143.22;5216901;28;20439;-70
2022/03/19 03:00:45;;;;;;;18.50;13.30;;;;;;;6.24;78.06;104147.56;5252180;28;20057;-70
2022/03/19 03:03:16;;;;;;;20.50;12.77;;;;;;;6.15;77.75;104146.59;5250588;28;20603;-70
2022/03/19 03:05:47;;;;;;;22.97;13.23;;;;;;;6.11;78.35;104142.19;5251763;28;20086;-70
2022/03/19 03:08:19;;;;;;;18.90;13.67;;;;;;;6.20;78.25;104154.44;5233438;28;20036;-70
2022/03/19 03:10:50;;;;;;;19.43;13.70;;;;;;;5.91;79.88;104136.72;5251713;28;20032;-69
2022/03/19 03:13:22;;;;;;;20.47;13.07;;;;;;;6.02;79.13;104153.31;5247822;28;20568;-70
2022/03/19 03:15:53;;;;;;;22.40;13.87;;;;;;;5.93;79.79;104155.81;5272187;28;20387;-70
2022/03/19 03:18:24;;;;;;;20.77;13.30;;;;;;;5.95;79.77;104151.53;5236808;28;20593;-70
2022/03/19 03:20:58;;;;;;;26.90;14.07;;;;;;;5.92;80.50;104152.34;5271678;28;20029;-70
2022/03/19 03:23:31;;;;;;;34.23;15.77;;;;;;;5.86;81.16;104161.78;5271963;28;20467;-70
2022/03/19 03:26:02;;;;;;;18.57;13.40;;;;;;;5.80;81.16;104162.56;5271945;28;20127;-70
2022/03/19 03:28:34;;;;;;;28.53;14.30;;;;;;;5.86;81.00;104160.06;5271651;28;20198;-70
2022/03/19 03:31:05;;;;;;;21.53;13.37;;;;;;;5.91;80.69;104162.72;5272392;28;20024;-70
2022/03/19 03:33:36;;;;;;;19.70;13.47;;;;;;;5.88;81.20;104167.88;5252972;28;20035;-70
2022/03/19 03:36:08;;;;;;;17.90;13.20;;;;;;;5.85;81.16;104162.66;5271449;28;20020;-70
2022/03/19 03:38:39;;;;;;;22.67;14.13;;;;;;;5.87;81.25;104163.53;5272587;28;20101;-70
2022/03/19 03:41:10;;;;;;;20.50;13.03;;;;;;;5.77;81.44;104157.31;5271456;28;20024;-70
2022/03/19 03:43:42;;;;;;;23.03;14.00;;;;;;;5.83;81.07;104161.75;5253872;28;20321;-70
2022/03/19 03:46:14;;;;;;;18.47;13.23;;;;;;;5.85;81.03;104162.66;5271462;28;20025;-70
2022/03/19 03:48:45;;;;;;;21.23;12.83;;;;;;;5.71;81.75;104155.50;5270953;28;20035;-70
2022/03/19 03:51:17;;;;;;;23.57;13.03;;;;;;;5.78;81.56;104153.88;5271329;28;20537;-70
2022/03/19 03:53:48;;;;;;;21.90;14.00;;;;;;;5.57;82.29;104140.59;5271699;28;20024;-70
2022/03/19 03:56:20;;;;;;;19.40;13.07;;;;;;;5.65;82.60;104142.44;5271784;28;20024;-70
2022/03/19 03:58:51;;;;;;;19.10;12.87;;;;;;;5.76;81.81;104153.00;5271384;28;20190;-70
2022/03/19 04:01:22;;;;;;;21.40;13.07;;;;;;;5.67;82.36;104149.38;5236845;28;20114;-70
2022/03/19 04:03:54;;;;;;;21.97;13.10;;;;;;;5.79;81.61;104151.31;5271162;28;20025;-69
2022/03/19 04:06:25;;;;;;;19.33;13.90;;;;;;;5.65;82.47;104145.03;5252943;28;20033;-69
2022/03/19 04:08:56;;;;;;;25.03;13.93;;;;;;;5.48;83.27;104132.63;5253899;28;20120;-69
2022/03/19 04:11:27;;;;;;;22.23;12.77;;;;;;;5.67;82.80;104146.78;5252688;28;20115;-70
2022/03/19 04:13:59;;;;;;;23.17;12.80;;;;;;;5.70;82.56;104143.38;5271134;28;20044;-70
2022/03/19 04:16:31;;;;;;;21.67;12.77;;;;;;;5.55;82.63;104125.81;5271852;28;20024;-69
2022/03/19 04:19:02;;;;;;;21.97;12.60;;;;;;;5.62;82.38;104134.59;5251730;28;20062;-70
2022/03/19 04:21:34;;;;;;;21.13;12.30;;;;;;;5.66;82.30;104133.75;5271725;28;20166;-70
2022/03/19 04:24:05;;;;;;;19.77;12.80;;;;;;;5.67;82.52;104138.97;5254390;28;20448;-69
2022/03/19 04:26:37;;;;;;;23.70;13.80;;;;;;;5.46;83.04;104121.38;5237972;28;20471;-69
2022/03/19 04:29:08;;;;;;;17.87;11.37;;;;;;;5.61;82.77;104135.41;5271399;28;20064;-70
2022/03/19 04:31:39;;;;;;;17.90;13.53;;;;;;;5.63;82.41;104136.31;5252257;28;20068;-70
2022/03/19 04:34:11;;;;;;;21.40;13.17;;;;;;;5.47;83.74;104137.81;5275167;28;20036;-69
2022/03/19 04:36:42;;;;;;;17.20;11.27;;;;;;;5.56;82.90;104131.03;5275347;28;20321;-69
2022/03/19 04:39:13;;;;;;;20.03;12.10;;;;;;;5.61;82.33;104138.03;5256940;28;20474;-69
2022/03/19 04:41:45;;;;;;;20.67;12.43;;;;;;;5.48;82.63;104124.84;5275637;28;20082;-69
2022/03/19 04:44:16;;;;;;;20.53;11.33;;;;;;;5.50;83.13;104127.47;5274855;28;20084;-69
2022/03/19 04:46:47;;;;;;;21.93;11.63;;;;;;;5.51;82.66;104124.91;5274455;28;20028;-69
2022/03/19 04:49:19;;;;;;;19.13;11.73;;;;;;;5.51;82.62;104124.03;5256581;28;20063;-69
2022/03/19 04:51:50;;;;;;;24.87;12.03;;;;;;;5.48;82.90;104123.97;5275588;28;20023;-69
2022/03/19 04:54:22;;;;;;;18.63;11.77;;;;;;;5.43;83.05;104121.28;5275055;28;20027;-69
2022/03/19 04:56:53;;;;;;;22.60;12.50;;;;;;;5.27;84.13;104118.47;5274702;28;20024;-70
2022/03/19 04:59:24;;;;;;;21.60;12.23;;;;;;;5.35;83.82;104123.78;5274854;28;20059;-69
2022/03/19 05:01:55;;;;;;;19.30;12.57;;;;;;;5.22;84.20;104117.50;5242984;28;20376;-70
2022/03/19 05:04:27;;;;;;;17.33;11.30;;;;;;;5.18;84.28;104114.00;5215233;28;20105;-69
2022/03/19 05:06:58;;;;;;;20.87;11.17;;;;;;;5.15;84.79;104115.69;5233464;28;20026;-70
2022/03/19 05:12:41;;;;;;;20.97;11.80;;;;;;;5.21;84.22;104115.78;5245654;28;20048;-69
2022/03/19 05:15:14;;;;;;;19.37;12.10;;;;;;;5.10;85.08;104117.34;5274503;28;20024;-70
2022/03/19 05:17:45;;;;;;;24.03;13.30;;;;;;;5.09;85.17;104116.47;5273548;28;20759;-70
2022/03/19 05:20:17;;;;;;;24.40;13.03;;;;;;;5.04;85.63;104126.78;5274092;28;20020;-69
2022/03/19 05:22:48;;;;;;;22.03;12.57;;;;;;;4.96;85.89;104125.75;5274376;28;20005;-74
2022/03/19 05:25:19;;;;;;;18.00;12.00;;;;;;;5.15;84.79;104128.69;5256488;28;20035;-73
2022/03/19 05:27:51;;;;;;;20.13;11.97;;;;;;;4.94;85.77;104127.47;5274596;28;20020;-69
2022/03/19 05:30:22;;;;;;;22.60;13.17;;;;;;;5.06;85.36;104137.19;5273827;28;20587;-68
2022/03/19 05:32:54;;;;;;;23.50;12.67;;;;;;;5.06;84.75;104126.81;5238808;28;20025;-69
2022/03/19 05:35:26;;;;;;;21.90;13.47;;;;;;;5.08;84.92;104131.16;5274010;28;20077;-69
2022/03/19 05:38:00;;;;;;;24.10;13.47;;;;;;;5.01;85.58;104142.28;5254941;28;20033;-71
2022/03/19 05:40:32;;;;;;;28.50;13.50;;;;;;;5.02;85.07;104130.19;5240395;28;20124;-71
2022/03/19 05:43:03;;;;;;;20.70;12.53;;;;;;;4.86;86.00;104113.47;5214269;28;20120;-70
2022/03/19 05:45:34;;;;;;;24.23;13.17;;;;;;;4.98;85.85;104126.66;5232483;28;20029;-70
2022/03/19 05:48:05;;;;;;;20.73;12.13;;;;;;;4.91;86.40;104130.00;5230775;28;20033;-70
2022/03/19 05:50:37;;;;;;;18.50;12.20;;;;;;;4.85;86.56;104125.59;5232987;28;20490;-71
2022/03/19 05:53:08;;;;;;;25.30;13.80;;;;;;;4.78;86.97;104121.97;5232406;28;20025;-71
2022/03/19 05:55:39;;;;;;;25.60;13.50;;;;;;;4.90;86.49;104125.66;5235964;28;20025;-70
2022/03/19 05:58:11;;;;;;;28.37;14.07;;;;;;;4.80;86.88;104120.28;5223743;28;20024;-70
2022/03/19 06:00:42;;;;;;;24.53;12.73;;;;;;;4.97;86.35;104122.31;5242379;28;20025;-71
2022/03/19 06:03:13;;;;;;;21.10;12.77;;;;;;;4.76;86.62;104113.31;5241667;28;20119;-70
2022/03/19 06:05:44;;;;;;;19.80;14.20;;;;;;;4.80;87.52;104125.50;5240215;28;20025;-71
2022/03/19 06:08:16;;;;;;;22.37;13.50;;;;;;;4.80;87.74;104125.50;5241501;28;20053;-70
2022/03/19 06:10:47;;;;;;;24.47;14.57;;;;;;;4.82;87.58;104134.19;5241847;28;20060;-71
2022/03/19 06:13:19;;;;;;;20.47;12.17;;;;;;;4.75;87.94;104123.69;5226737;28;20548;-71
2022/03/19 06:15:50;;;;;;;19.87;12.97;;;;;;;4.88;87.33;104135.16;5252991;28;20071;-72
2022/03/19 06:18:21;;;;;;;26.20;12.87;;;;;;;4.90;87.03;104134.34;5251763;28;20028;-71
2022/03/19 06:20:52;;;;;;;22.43;12.67;;;;;;;4.91;87.47;104132.59;5251791;28;20029;-72
2022/03/19 06:23:25;;;;;;;24.70;14.60;;;;;;;4.84;87.98;104132.50;5244537;28;20025;-76
2022/03/19 06:25:57;;;;;;;23.77;13.40;;;;;;;4.91;88.17;104137.78;5231215;28;20033;-71
2022/03/19 06:28:28;;;;;;;25.17;13.60;;;;;;;4.94;87.96;104137.88;5212828;28;20391;-72
2022/03/19 06:30:59;;;;;;;23.83;14.10;;;;;;;5.00;87.82;104140.56;5231540;28;20030;-72
2022/03/19 06:33:31;;;;;;;29.47;14.03;;;;;;;5.01;87.83;104142.28;5212727;28;20021;-71
2022/03/19 06:38:52;;;;;;;21.70;12.70;;;;;;;5.08;88.37;104145.88;5231396;28;20667;-71
2022/03/19 06:41:23;;;;;;;19.33;12.13;;;;;;;5.11;88.00;104140.75;5213716;28;20026;-71
2022/03/19 06:43:55;;;;;;;23.43;12.30;;;;;;;5.11;88.15;104134.66;5230788;28;20021;-71
2022/03/19 06:46:26;;;;;;;21.83;12.60;;;;;;;5.10;88.00;104130.34;5212879;28;20022;-71
2022/03/19 06:48:57;;;;;;;22.37;13.47;;;;;;;5.25;87.95;104150.50;5231208;28;20033;-72
2022/03/19 06:51:29;;;;;;;18.27;12.10;;;;;;;5.36;87.67;104146.31;5230843;28;20030;-71
2022/03/19 06:54:00;;;;;;;22.80;13.50;;;;;;;5.38;87.50;104147.22;5230741;28;20171;-72
2022/03/19 06:56:31;;;;;;;24.20;12.57;;;;;;;5.44;87.10;104147.34;5230665;28;20033;-71
2022/03/19 06:59:03;;;;;;;22.77;13.50;;;;;;;5.51;86.54;104139.63;5230724;28;20112;-71
2022/03/19 07:01:36;;;;;;;27.67;13.53;;;;;;;5.62;86.07;104148.44;5230230;28;20021;-71
2022/03/19 07:04:07;;;;;;;20.30;11.80;;;;;;;5.65;86.48;104142.44;5213656;28;20032;-71
2022/03/19 07:06:38;;;;;;;23.10;12.17;;;;;;;5.75;86.15;104146.91;5231006;28;20384;-71
2022/03/19 07:09:10;;;;;;;24.10;12.67;;;;;;;5.78;86.27;104139.13;5230419;28;20475;-71
2022/03/19 07:11:41;;;;;;;22.47;11.57;;;;;;;5.81;85.39;104152.19;5233189;28;20112;-71
2022/03/19 07:14:12;;;;;;;25.17;13.03;;;;;;;5.84;85.52;104146.16;5271299;28;20459;-71
2022/03/19 07:16:44;;;;;;;18.97;12.47;;;;;;;5.95;84.82;104154.13;5271673;28;20027;-71
2022/03/19 07:19:15;;;;;;;26.83;11.63;;;;;;;6.01;84.91;104151.59;5271920;28;20372;-71
2022/03/19 07:21:46;;;;;;;21.10;11.17;;;;;;;6.08;84.36;104143.88;5256679;28;20561;-71
2022/03/19 07:24:17;;;;;;;21.63;11.90;;;;;;;6.18;84.21;104153.53;5272156;28;20552;-71
2022/03/19 07:26:49;;;;;;;19.93;12.00;;;;;;;6.19;83.58;104150.09;5272081;28;20400;-71
2022/03/19 07:29:20;;;;;;;19.50;11.60;;;;;;;6.28;83.32;104139.78;5271456;28;20089;-71
2022/03/19 07:31:51;;;;;;;21.87;10.87;;;;;;;6.35;83.10;104139.88;5271236;28;20505;-71
2022/03/19 07:34:23;;;;;;;20.90;11.20;;;;;;;6.49;82.62;104146.09;5271569;28;20025;-71
2022/03/19 07:36:54;;;;;;;19.33;11.70;;;;;;;6.60;82.00;104148.81;5271993;28;20033;-71
2022/03/19 07:39:26;;;;;;;22.73;10.70;;;;;;;6.65;81.38;104118.47;5271369;28;20043;-71
2022/03/19 07:41:57;;;;;;;19.93;10.33;;;;;;;6.78;80.64;104132.50;5271619;28;20029;-72
2022/03/19 07:44:30;;;;;;;18.50;10.73;;;;;;;6.96;79.74;104138.75;5254001;28;20060;-72
2022/03/19 07:47:02;;;;;;;22.00;11.80;;;;;;;7.22;79.23;104139.81;5270420;28;20670;-71
2022/03/19 07:49:33;;;;;;;19.17;10.80;;;;;;;7.34;77.97;104146.84;5272006;28;20032;-71
2022/03/19 07:52:05;;;;;;;22.10;10.63;;;;;;;7.47;77.31;104140.00;5271232;28;20103;-72
2022/03/19 07:54:37;;;;;;;18.33;10.27;;;;;;;7.79;76.62;104152.34;5271838;28;20433;-71
2022/03/19 07:57:10;;;;;;;16.27;9.87;;;;;;;7.98;75.26;104137.66;5271370;28;20029;-71
2022/03/19 07:59:41;;;;;;;20.17;9.57;;;;;;;8.44;73.72;104141.31;5271415;28;20017;-71
2022/03/19 08:02:13;;;;;;;17.90;10.00;;;;;;;9.23;70.78;104146.63;5236329;28;20034;-71
2022/03/19 08:04:44;;;;;;;18.03;9.37;;;;;;;9.80;67.10;104141.28;5271328;28;20039;-71
2022/03/19 08:07:15;;;;;;;16.97;8.73;;;;;;;10.26;65.36;104141.94;5271237;28;20033;-71
2022/03/19 08:09:46;;;;;;;17.03;7.90;;;;;;;10.91;63.76;104141.56;5271814;28;20033;-71
2022/03/19 08:12:17;;;;;;;13.97;8.27;;;;;;;11.47;60.75;104136.66;5252693;28;20052;-71
2022/03/19 08:14:49;;;;;;;15.90;8.20;;;;;;;11.68;58.14;104102.28;5271538;28;20028;-72
2022/03/19 08:17:21;;;;;;;15.60;7.67;;;;;;;12.31;56.74;104126.88;5251945;28;20035;-71
2022/03/19 08:19:52;;;;;;;22.90;7.30;;;;;;;12.97;54.28;104131.13;5271484;28;20356;-72
2022/03/19 08:22:27;;;;;;;19.93;7.27;;;;;;;13.34;53.42;104145.38;5271071;28;20028;-72
2022/03/19 08:24:59;;;;;;;14.10;6.87;;;;;;;13.65;52.22;104157.97;5271411;28;20035;-72
2022/03/19 08:27:30;;;;;;;12.60;6.40;;;;;;;14.51;50.44;104144.72;5252843;28;20467;-72
2022/03/19 08:30:03;;;;;;;13.77;6.67;;;;;;;14.64;48.47;104108.38;5242664;28;20070;-75
2022/03/19 08:32:35;;;;;;;14.33;7.00;;;;;;;15.62;47.25;104143.69;5242602;28;20048;-74
2022/03/19 08:35:06;;;;;;;11.17;6.20;;;;;;;15.68;45.50;104159.34;5240922;28;20049;-75
2022/03/19 08:37:37;;;;;;;14.67;6.30;;;;;;;16.05;45.21;104152.16;5241570;28;20057;-75
2022/03/19 08:40:15;;;;;;;10.83;6.13;;;;;;;16.31;44.13;104163.69;5238421;28;20037;-75
2022/03/19 08:42:51;;;;;;;14.17;6.57;;;;;;;16.19;42.99;104127.94;5244258;28;20033;-75
2022/03/19 08:45:22;;;;;;;15.50;5.93;;;;;;;16.41;42.65;104149.25;5238102;28;20402;-75
2022/03/19 08:47:53;;;;;;;15.57;7.03;;;;;;;16.88;42.17;104142.44;5242449;28;20032;-76
2022/03/19 08:50:27;;;;;;;16.43;6.60;;;;;;;17.56;40.91;104143.63;5239853;28;21289;-75
2022/03/19 08:52:58;;;;;;;12.57;6.22;;;;;;;18.00;39.50;104136.69;5223028;28;20494;-75
2022/03/19 08:55:30;;;;;;;10.57;5.83;;;;;;;17.98;39.02;104146.47;5233380;28;20021;-76
2022/03/19 08:58:03;;;;;;;12.50;6.13;;;;;;;18.00;38.20;104141.97;5244816;28;20029;-76
2022/03/19 09:00:35;;;;;;;11.83;6.07;;;;;;;18.40;37.80;104134.25;5249441;28;20629;-76
2022/03/19 09:03:06;;;;;;;11.50;5.77;;;;;;;19.05;37.28;104141.28;5230854;28;20029;-75
2022/03/19 09:05:37;;;;;;;13.50;6.07;;;;;;;18.80;36.51;104126.41;5248862;28;20052;-76
2022/03/19 09:08:09;;;;;;;10.40;5.50;;;;;;;18.35;36.47;104142.41;5248515;28;20112;-75
2022/03/19 09:10:40;;;;;;;10.77;5.20;;;;;;;19.05;36.54;104130.66;5228100;28;20033;-75
2022/03/19 09:13:11;;;;;;;13.53;5.80;;;;;;;18.77;36.09;104131.84;5233558;28;20057;-72
2022/03/19 09:15:43;;;;;;;11.55;5.20;;;;;;;18.88;35.94;104131.38;5232311;28;20037;-69
2022/03/19 09:18:16;;;;;;;12.15;5.30;;;;;;;19.49;35.31;104120.78;5249212;28;20041;-71
2022/03/19 09:20:47;;;;;;;10.27;5.20;;;;;;;20.16;34.45;104130.94;5254003;28;20864;-71
2022/03/19 09:23:18;;;;;;;12.02;5.47;;;;;;;20.20;33.92;104121.03;5252626;28;20031;-71
2022/03/19 09:25:50;;;;;;;13.13;5.55;;;;;;;20.50;33.36;104120.44;5218695;28;20141;-70
2022/03/19 09:28:21;;;;;;;11.77;5.75;;;;;;;20.56;33.06;104127.25;5263323;28;20024;-71
2022/03/19 09:30:52;;;;;;;11.38;5.53;;;;;;;20.41;32.82;104126.22;5273020;28;20021;-71
2022/03/19 09:33:24;;;;;;;10.27;4.95;;;;;;;20.74;32.05;104122.78;5274224;28;20028;-70
2022/03/19 09:35:57;;;;;;;11.73;5.40;;;;;;;19.59;33.44;104126.50;5274159;28;20021;-70
2022/03/19 09:38:28;;;;;;;11.90;5.38;;;;;;;19.36;33.60;104122.28;5273913;28;20036;-70
2022/03/19 09:41:00;;;;;;;7.50;4.68;;;;;;;19.29;33.69;104122.53;5260856;28;20020;-74
2022/03/19 09:43:31;;;;;;;9.50;5.18;;;;;;;20.09;32.63;104116.22;5273941;28;20074;-73
2022/03/19 09:46:04;;;;;;;9.05;5.10;;;;;;;20.03;32.63;104117.38;5272947;28;20032;-73
2022/03/19 09:48:35;;;;;;;11.63;5.18;;;;;;;19.82;32.86;104109.50;5273848;28;20033;-73
2022/03/19 09:51:11;;;;;;;9.15;5.03;;;;;;;20.40;32.07;104092.56;5255688;28;20111;-72
2022/03/19 09:53:43;;;;;;;10.43;5.20;;;;;;;21.15;31.40;104104.72;5273642;28;20522;-75
2022/03/19 09:56:16;;;;;;;10.43;4.57;;;;;;;21.44;31.14;104099.59;5273889;28;20021;-73
2022/03/19 09:58:48;;;;;;;10.13;4.53;;;;;;;21.54;30.34;104093.78;5273867;28;20028;-76
2022/03/19 10:01:19;;;;;;;9.98;4.60;;;;;;;21.97;29.41;104085.16;5272559;28;20051;-74
2022/03/19 10:03:50;;;;;;;9.05;4.60;;;;;;;22.17;28.43;104085.78;5256178;28;20667;-74
2022/03/19 10:09:21;;;;;;;11.38;4.32;;;;;;;21.83;29.12;104080.63;5259153;28;20041;-76
2022/03/19 10:11:52;;;;;;;10.48;4.30;;;;;;;21.72;27.91;104076.72;5252759;28;20114;-81
2022/03/19 10:14:25;;;;;;;14.27;4.50;;;;;;;21.86;27.32;104072.44;5230741;28;20082;-74
2022/03/19 10:16:57;;;;;;;12.07;4.93;;;;;;;21.45;27.81;104073.81;5272670;28;20107;-74
2022/03/19 10:19:29;;;;;;;9.97;3.93;;;;;;;20.54;27.74;104063.41;5255356;28;20048;-71
2022/03/19 10:22:10;;;;;;;9.60;3.90;;;;;;;20.93;28.02;104055.19;5272806;28;20035;-76
2022/03/19 10:24:41;;;;;;;9.85;4.05;;;;;;;20.63;28.37;104050.59;5255233;28;20040;-74
2022/03/19 10:27:19;;;;;;;12.48;4.68;;;;;;;21.37;29.43;104045.75;5273034;28;20024;-74
2022/03/19 10:30:03;;;;;;;12.57;4.72;;;;;;;21.72;27.57;104041.19;5272236;28;20028;-77
2022/03/19 10:32:36;;;;;;;8.48;4.47;;;;;;;21.25;26.48;104027.78;5253946;28;20035;-77
2022/03/19 10:35:28;;;;;;;6.97;3.90;;;;;;;21.88;26.41;104038.53;5254823;28;20048;-82
2022/03/19 10:38:15;;;;;;;11.75;4.25;;;;;;;20.03;26.95;104032.25;5244728;28;20376;-76
2022/03/19 10:40:48;;;;;;;9.55;3.90;;;;;;;19.44;27.25;104021.78;5233928;28;20051;-76
2022/03/19 10:43:22;;;;;;;10.40;3.72;;;;;;;19.33;28.24;104028.47;5229466;28;20516;-76
2022/03/19 10:45:54;;;;;;;10.60;4.30;;;;;;;18.97;27.88;104021.25;5243806;28;20022;-79
2022/03/19 10:48:27;;;;;;;7.95;3.50;;;;;;;18.82;29.02;104002.41;5236846;28;20063;-83
2022/03/19 10:50:58;;;;;;;9.63;3.43;;;;;;;18.78;27.72;104007.94;5230674;28;20036;-73
2022/03/19 10:53:31;;;;;;;6.22;3.45;;;;;;;18.12;26.52;103990.31;5238329;28;20069;-76
2022/03/19 10:56:04;;;;;;;8.23;3.03;;;;;;;18.66;25.67;103996.91;5240182;28;20033;-77
2022/03/19 10:58:35;;;;;;;6.47;2.93;;;;;;;17.81;26.26;104002.19;5230310;28;20032;-72
2022/03/19 11:01:09;;;;;;;6.83;3.03;;;;;;;16.85;27.11;103988.16;5239148;28;20081;-71
2022/03/19 11:03:42;;;;;;;;;;;;;;;17.15;27.32;103986.19;5229841;28;20378;-71
2022/03/19 11:06:15;;;;;;;7.23;2.93;;;;;;;16.28;28.13;103978.69;5226153;28;20094;-72
2022/03/19 11:08:47;;;;;;;7.53;3.00;;;;;;;16.64;28.42;103967.72;5240819;28;20052;-73
2022/03/19 11:11:27;;;;;;;8.57;3.50;;;;;;;16.72;27.25;103982.47;5240770;28;20027;-74
2022/03/19 11:14:02;;;;;;;11.83;3.50;;;;;;;16.19;27.00;103975.44;5240194;28;20053;-74
2022/03/19 11:16:37;;;;;;;10.27;3.73;;;;;;;15.62;27.65;103975.47;5227519;28;20072;-74
2022/03/19 11:19:10;;;;;;;7.27;2.93;;;;;;;15.66;27.56;103942.75;5240131;28;20021;-76
2022/03/19 11:21:41;;;;;;;8.10;2.83;;;;;;;15.62;27.01;103930.56;5239735;28;20056;-72
2022/03/19 11:24:24;;;;;;;10.30;3.03;;;;;;;16.00;26.80;103943.47;5240461;28;20037;-71
2022/03/19 11:26:58;;;;;;;10.40;3.47;;;;;;;15.46;26.63;103949.50;5240562;28;20420;-79
2022/03/19 11:29:31;;;;;;;9.97;3.40;;;;;;;15.85;26.73;103934.22;5229015;28;20027;-77
2022/03/19 11:32:05;;;;;;;7.57;2.77;;;;;;;15.92;25.89;103940.16;5239529;28;20037;-77
2022/03/19 11:34:45;;;;;;;5.88;2.42;;;;;;;16.01;25.85;103928.44;5228067;28;20158;-74
2022/03/19 11:37:17;;;;;;;9.43;2.70;;;;;;;15.61;25.76;103910.34;5240022;28;20025;-73
2022/03/19 11:40:28;;;;;;;11.77;2.87;;;;;;;16.05;26.30;103917.75;5239472;28;20021;-74
2022/03/19 11:43:04;;;;;;;5.43;2.40;;;;;;;16.13;25.49;103911.34;5239159;28;20048;-80
2022/03/19 11:45:50;;;;;;;8.87;3.17;;;;;;;15.68;25.25;103926.84;5239335;28;20489;-80
2022/03/19 11:48:45;;;;;;;5.63;2.97;;;;;;;16.01;25.16;103920.53;5240246;28;20192;-83
2022/03/19 11:51:39;;;;;;;5.17;2.70;;;;;;;15.95;25.69;103903.06;5230524;28;21052;-76
2022/03/19 11:54:15;;;;;;;6.40;3.80;;;;;;;15.19;26.05;103907.22;5239852;28;20029;-72
2022/03/19 11:56:47;;;;;;;6.07;3.17;;;;;;;15.58;25.56;103884.91;5239728;28;20531;-72